Rawlins Municipal Harvey Field
KRWL : now visible

Airfield :











YOU CAN JOIN US ON...

 
LOGIN :

Register | Disclaimer

   EN    FR    IT 

 









Legend :    VFR   Marginal VFR   IFR   Intensive IFR   Very Intensive IFR
Visi :
Ceiling :
>= 8 km
>= 3000ft
5 to 8 km
1000 to 3000 ft
1500m to 5 km
500 to 1000 ft
800 to 1500m
200 to 500 ft
< 800m
< 200 ft
Symbols :   Thunderstorms  Fog  Heavy snow  Heavy precipitations  Wind > 20 kt






- Airport Elevation : 6813 ft


KRWL - Rawlins Municipal Harvey Field

CURRENT METAR :
  • 021253Z AUTO 22025G38KT 9SM -SN BKN022 OVC027 02/M03 A2956 RMK AO2 PK WND 22044/1234 SLP991 P0000 T00171033

EXPIRED METARs :
  • 021236Z AUTO 22029G44KT 9SM -SN BKN028 OVC033 02/M04 A2955 RMK AO2 PK WND 22044/1234 P0000 T00221039
  • 021153Z AUTO 22027G42KT 9SM -SN OVC034 03/M05 A2955 RMK AO2 PK WND 22042/1151 SNB31 SLP983 P0000 60000 T00281050 10039 20022 56008
  • 021053Z AUTO 24017G25KT 10SM FEW060 OVC080 02/M06 A2955 RMK AO2 SLP983 T00221061

TAF KRWL
Valid from the 02 at 12:00 until the 03 at 12:00 UTC


021120Z 0212/0312 24030G50KT P6SM BKN040 WS020/23060KT
TEMPO 0212/0216 3SM -SHSN OVC025
FM021600 27030G50KT 4SM -SHSN OVC035
FM021900 27025G40KT P6SM SKC
FM030100 24015KT P6SM SKC
KZDV FIR / North America



MET'MAP, your aeronautical weather chart ! - Copyright ORBIFLY December 2007 - Disclaimer

ORBIFLY MET'MAP TEAM :

Programming & Development : Alexandra Zaïnal
Original concept : Baudouin d'Aumeries
Technical & hardware support : Manuel Goepfert
Assistance : Marc-Olivier Méhu




SOURCES & CREDITS :

   NOAA       Earth
Advisory